Time;durP1;ratioP1;P1;durP2;ratioP2;P2;SDS_P1;SDS_P2;PMS_P1;PMS_P2;Temp;Humidity;BMP_temperature;BMP_pressure;BME280_temperature;BME280_humidity;BME280_pressure;Samples;Min_cycle;Max_cycle;Signal;HPM_P1;HPM_P2
2023/01/27 00:01:07;;;;;;;12.30;2.67;;;;;;;4.16;87.61;102342.19;5043416;28;20492;-68
2023/01/27 00:03:34;;;;;;;12.77;2.90;;;;;;;4.17;87.63;102341.34;5045952;28;20053;-68
2023/01/27 00:06:03;;;;;;;13.52;2.88;;;;;;;4.18;87.46;102335.28;5037615;28;20133;-69
2023/01/27 00:08:30;;;;;;;11.40;2.80;;;;;;;4.13;87.73;102337.81;5055404;28;20493;-68
2023/01/27 00:13:45;;;;;;;22.95;3.17;;;;;;;4.16;87.48;102343.09;5043429;28;20042;-68
2023/01/27 00:16:12;;;;;;;10.82;2.70;;;;;;;4.15;87.56;102341.34;5038141;28;20048;-69
2023/01/27 00:18:39;;;;;;;12.35;2.80;;;;;;;4.10;87.72;102337.72;5044363;28;20949;-69
2023/01/27 00:26:37;;;;;;;13.55;2.95;;;;;;;4.14;87.64;102352.63;5042257;28;20127;-69
2023/01/27 00:29:04;;;;;;;11.77;2.53;;;;;;;4.12;87.71;102350.84;5031640;28;20240;-69
2023/01/27 00:34:18;;;;;;;17.25;3.22;;;;;;;4.12;87.66;102351.69;5041818;28;20034;-68
2023/01/27 00:36:45;;;;;;;10.60;2.80;;;;;;;4.14;87.60;102349.13;5056011;28;20119;-68
2023/01/27 00:39:12;;;;;;;15.05;2.92;;;;;;;4.08;87.71;102342.03;5056035;28;20038;-68
2023/01/27 00:41:42;;;;;;;14.57;3.80;;;;;;;4.03;87.93;102349.78;5042171;28;20619;-70
2023/01/27 00:44:11;;;;;;;18.73;3.30;;;;;;;4.06;87.78;102342.88;5041929;28;20141;-70
2023/01/27 00:46:41;;;;;;;10.98;3.70;;;;;;;4.06;87.65;102353.31;5029473;28;20104;-69
2023/01/27 00:49:12;;;;;;;13.05;3.15;;;;;;;4.06;87.31;102345.47;5040941;28;20612;-69
2023/01/27 00:51:39;;;;;;;12.18;3.25;;;;;;;4.06;87.09;102346.38;5041124;28;20034;-69
2023/01/27 00:54:06;;;;;;;8.55;3.10;;;;;;;4.08;86.88;102347.25;5039090;28;20049;-70
2023/01/27 00:56:34;;;;;;;12.98;3.58;;;;;;;4.07;86.53;102355.94;5043290;28;20041;-70
2023/01/27 00:59:01;;;;;;;13.32;3.33;;;;;;;4.04;86.87;102350.66;5043190;28;20041;-69
2023/01/27 01:01:30;;;;;;;14.77;3.75;;;;;;;4.01;87.21;102355.81;5040265;28;20042;-69
2023/01/27 01:03:57;;;;;;;9.30;3.40;;;;;;;4.02;86.78;102358.44;5042171;28;20466;-69
2023/01/27 01:06:25;;;;;;;11.32;3.70;;;;;;;4.02;86.57;102354.97;5042490;28;20415;-70
2023/01/27 01:08:56;;;;;;;13.13;3.83;;;;;;;4.00;86.92;102359.28;5045196;28;20038;-68
2023/01/27 01:11:25;;;;;;;12.85;3.75;;;;;;;4.01;86.44;102361.94;5045666;28;20076;-70
2023/01/27 01:13:52;;;;;;;9.90;3.88;;;;;;;4.03;86.11;102365.44;5042558;28;20049;-69
2023/01/27 01:16:23;;;;;;;11.50;3.50;;;;;;;4.04;85.80;102358.50;5041757;28;20045;-69
2023/01/27 01:18:51;;;;;;;13.65;4.10;;;;;;;4.04;85.37;102361.09;5058621;28;20073;-69
2023/01/27 01:21:19;;;;;;;13.63;3.88;;;;;;;4.04;85.03;102361.97;5035419;28;20283;-69
2023/01/27 01:23:46;;;;;;;6.82;2.63;;;;;;;4.09;84.64;102374.25;5032536;28;20093;-69
2023/01/27 01:26:16;;;;;;;10.85;3.67;;;;;;;4.08;84.30;102373.34;5060479;28;20128;-69
2023/01/27 01:28:44;;;;;;;9.98;3.88;;;;;;;4.08;84.33;102370.75;5042778;28;20045;-68
2023/01/27 01:31:16;;;;;;;15.25;3.90;;;;;;;4.02;84.69;102368.88;5040153;28;20050;-70
2023/01/27 01:33:44;;;;;;;9.02;3.67;;;;;;;4.04;84.80;102379.38;5035221;28;20038;-68
2023/01/27 01:36:18;;;;;;;12.43;3.97;;;;;;;4.04;84.78;102385.47;5043937;28;20044;-68
2023/01/27 01:38:46;;;;;;;10.45;3.75;;;;;;;4.06;84.71;102385.53;5040141;28;20049;-69
2023/01/27 01:41:18;;;;;;;9.10;3.90;;;;;;;4.02;85.04;102368.88;5056464;28;20068;-69
2023/01/27 01:43:49;;;;;;;12.35;4.15;;;;;;;4.02;84.67;102371.50;5037491;28;20041;-69
2023/01/27 01:46:18;;;;;;;13.25;4.28;;;;;;;4.04;84.55;102377.63;5058156;28;20034;-69
2023/01/27 01:49:02;;;;;;;14.02;4.50;;;;;;;4.03;84.31;102381.09;5039828;28;20052;-68
2023/01/27 01:51:38;;;;;;;9.90;3.80;;;;;;;4.01;84.02;102385.41;5043739;28;20579;-70
2023/01/27 01:54:18;;;;;;;9.80;3.13;;;;;;;4.03;83.40;102383.69;5053879;28;20048;-69
2023/01/27 01:56:54;;;;;;;12.55;4.10;;;;;;;4.03;83.12;102386.31;5043638;28;20508;-69
2023/01/27 01:59:30;;;;;;;10.73;3.80;;;;;;;4.00;83.51;102385.38;5056044;28;20048;-70
2023/01/27 02:02:04;;;;;;;10.15;3.63;;;;;;;4.02;83.51;102381.94;5040563;28;20136;-70
2023/01/27 02:04:43;;;;;;;14.43;4.47;;;;;;;3.97;83.97;102383.59;5041635;28;20029;-70
2023/01/27 02:07:41;;;;;;;12.35;3.80;;;;;;;3.99;84.36;102386.22;5058278;28;20050;-70
2023/01/27 02:10:10;;;;;;;12.05;4.32;;;;;;;3.94;84.61;102391.34;5039509;28;20121;-69
2023/01/27 02:12:38;;;;;;;11.45;4.50;;;;;;;3.91;84.97;102393.91;5039184;28;20055;-69
2023/01/27 02:15:08;;;;;;;11.90;4.20;;;;;;;3.92;84.94;102400.84;5045750;28;20046;-70
2023/01/27 02:17:36;;;;;;;10.70;4.53;;;;;;;3.91;84.83;102398.22;5048136;28;20049;-70
2023/01/27 02:20:43;;;;;;;8.63;4.20;;;;;;;3.86;85.02;102396.41;5038049;28;20041;-70
2023/01/27 02:23:39;;;;;;;11.27;4.60;;;;;;;3.88;85.09;102404.25;5053041;28;20052;-69
2023/01/27 02:26:24;;;;;;;12.68;4.97;;;;;;;3.92;84.42;102399.97;5045092;28;20468;-70
2023/01/27 02:29:14;;;;;;;13.77;4.90;;;;;;;3.96;84.02;102409.66;5044866;28;20037;-69
2023/01/27 02:31:41;;;;;;;13.25;4.30;;;;;;;3.91;84.52;102403.44;5052422;28;20038;-69
2023/01/27 02:34:19;;;;;;;15.82;4.65;;;;;;;3.87;84.64;102403.34;5062269;28;20464;-70
2023/01/27 02:36:57;;;;;;;13.25;4.40;;;;;;;3.86;84.62;102403.34;5061305;28;20623;-70
2023/01/27 02:39:39;;;;;;;10.98;4.85;;;;;;;3.84;84.96;102405.91;5063992;28;20053;-69
2023/01/27 02:42:11;;;;;;;14.88;5.00;;;;;;;3.88;84.74;102409.47;5047614;28;20044;-69
2023/01/27 02:44:38;;;;;;;15.35;4.65;;;;;;;3.85;84.98;102410.28;5044156;28;20042;-68
2023/01/27 02:47:05;;;;;;;11.90;4.82;;;;;;;3.84;85.06;102413.75;5045002;28;20113;-69
2023/01/27 02:49:33;;;;;;;11.88;5.13;;;;;;;3.79;85.49;102402.31;5042375;28;20541;-70
2023/01/27 02:52:01;;;;;;;11.13;4.97;;;;;;;3.77;85.62;102396.16;5058819;28;20534;-70
2023/01/27 02:54:29;;;;;;;10.80;5.05;;;;;;;3.81;85.71;102407.56;5042975;28;20476;-70
2023/01/27 02:56:56;;;;;;;10.40;5.10;;;;;;;3.80;85.75;102405.81;5052190;28;20129;-70
2023/01/27 02:59:25;;;;;;;10.30;5.50;;;;;;;3.78;85.67;102410.09;5042626;28;20060;-70
2023/01/27 03:01:53;;;;;;;12.02;5.30;;;;;;;3.80;85.79;102413.66;5045552;28;20049;-70
2023/01/27 03:04:20;;;;;;;13.15;6.15;;;;;;;3.73;86.03;102403.03;5045289;28;20112;-70
2023/01/27 03:06:47;;;;;;;12.48;6.25;;;;;;;3.72;86.20;102408.25;5025857;28;20045;-70
2023/01/27 03:09:14;;;;;;;16.70;7.13;;;;;;;3.70;86.14;102404.72;5061834;28;20030;-69
2023/01/27 03:20:00;;;;;;;15.43;7.85;;;;;;;3.73;85.30;102421.31;5054658;28;20041;-70
2023/01/27 03:22:28;;;;;;;14.45;8.27;;;;;;;3.73;84.97;102423.03;5039583;28;20045;-70
2023/01/27 03:24:55;;;;;;;15.05;8.30;;;;;;;3.75;84.80;102430.91;5036577;28;20133;-69
2023/01/27 03:27:23;;;;;;;17.75;8.73;;;;;;;3.70;84.65;102416.03;5041775;28;20029;-69
2023/01/27 03:30:10;;;;;;;16.13;8.57;;;;;;;3.75;83.99;102428.28;5040460;28;20782;-70
2023/01/27 03:32:37;;;;;;;14.65;9.07;;;;;;;3.69;83.92;102422.09;5057983;28;20043;-70
2023/01/27 03:35:33;;;;;;;17.83;10.10;;;;;;;3.67;84.10;102428.09;5042633;28;20119;-70
2023/01/27 03:46:19;;;;;;;14.90;8.65;;;;;;;3.49;84.59;102442.47;5051251;28;20048;-69
2023/01/27 03:48:53;;;;;;;15.85;8.77;;;;;;;3.42;85.08;102444.03;5047348;28;20042;-69
2023/01/27 03:51:23;;;;;;;15.00;9.68;;;;;;;3.37;85.41;102455.19;5045764;28;20049;-70
2023/01/27 03:53:51;;;;;;;15.25;9.00;;;;;;;3.30;85.91;102438.53;5042898;28;20042;-70
2023/01/27 03:56:21;;;;;;;18.77;9.38;;;;;;;3.29;86.13;102454.13;5044049;28;20133;-71
2023/01/27 03:58:49;;;;;;;16.95;9.48;;;;;;;3.20;86.84;102452.19;5045586;28;20120;-69
2023/01/27 04:01:22;;;;;;;17.17;9.57;;;;;;;3.18;87.15;102456.47;5031117;28;20084;-69
2023/01/27 04:06:59;;;;;;;16.33;9.85;;;;;;;3.14;87.75;102458.09;5042129;28;20115;-70
2023/01/27 04:09:33;;;;;;;16.70;9.55;;;;;;;3.04;88.47;102456.09;5034537;28;20131;-69
2023/01/27 04:12:05;;;;;;;17.65;9.70;;;;;;;3.02;88.99;102457.78;5057551;28;20079;-69
2023/01/27 04:14:36;;;;;;;19.80;10.18;;;;;;;3.01;89.19;102459.47;5060190;28;20501;-70
2023/01/27 04:17:13;;;;;;;15.52;9.77;;;;;;;3.02;89.40;102462.97;5037004;28;20058;-70
2023/01/27 04:19:41;;;;;;;18.27;9.98;;;;;;;3.08;89.30;102458.81;5039590;28;20042;-70
2023/01/27 04:22:11;;;;;;;18.10;10.40;;;;;;;3.11;89.23;102455.41;5062877;28;20049;-70
2023/01/27 04:24:38;;;;;;;19.25;10.73;;;;;;;3.09;89.34;102457.97;5061336;28;20932;-70
2023/01/27 04:27:10;;;;;;;19.50;10.18;;;;;;;3.16;89.56;102452.91;5045348;28;20139;-70
2023/01/27 04:29:40;;;;;;;16.85;10.02;;;;;;;3.17;89.26;102447.75;5041655;28;20041;-69
2023/01/27 04:32:10;;;;;;;22.10;11.68;;;;;;;3.12;89.79;102462.38;5053017;28;20041;-69
2023/01/27 04:34:39;;;;;;;17.90;10.85;;;;;;;3.13;90.03;102448.53;5040993;28;20188;-69
2023/01/27 04:37:08;;;;;;;17.92;10.48;;;;;;;3.15;89.99;102459.88;5027795;28;20758;-69
2023/01/27 04:39:35;;;;;;;17.67;11.07;;;;;;;3.18;89.96;102459.06;5041445;28;20033;-69
2023/01/27 04:42:03;;;;;;;18.10;11.60;;;;;;;3.20;90.09;102460.84;5041190;28;20107;-69
2023/01/27 04:44:30;;;;;;;22.48;11.18;;;;;;;3.14;90.34;102457.22;5041350;28;20053;-69
2023/01/27 04:46:57;;;;;;;17.63;11.27;;;;;;;3.11;90.66;102453.66;5046599;28;20044;-69
2023/01/27 04:49:25;;;;;;;22.67;12.70;;;;;;;3.11;90.70;102458.88;5045473;28;20042;-69
2023/01/27 04:51:54;;;;;;;20.23;10.90;;;;;;;3.11;90.62;102465.84;5041496;28;20038;-70
2023/01/27 04:54:21;;;;;;;17.60;10.85;;;;;;;3.16;90.38;102460.75;5040078;28;20052;-69
2023/01/27 04:57:04;;;;;;;15.70;10.02;;;;;;;3.15;90.38;102467.69;5045325;28;20538;-69
2023/01/27 04:59:31;;;;;;;17.42;9.77;;;;;;;3.22;89.96;102463.50;5034983;28;20041;-68
2023/01/27 05:01:58;;;;;;;14.68;10.15;;;;;;;3.17;90.13;102465.13;5044772;28;20516;-68
2023/01/27 05:04:25;;;;;;;16.98;9.45;;;;;;;3.22;90.02;102466.09;5057578;28;20033;-68
2023/01/27 05:06:53;;;;;;;15.35;9.82;;;;;;;3.23;89.92;102471.38;5045103;28;20046;-68
2023/01/27 05:09:20;;;;;;;14.05;9.32;;;;;;;3.18;89.94;102480.78;5040153;28;20120;-68
2023/01/27 05:11:47;;;;;;;17.50;10.82;;;;;;;3.15;90.34;102475.50;5044448;28;20738;-68
2023/01/27 05:14:14;;;;;;;15.77;10.35;;;;;;;3.16;90.37;102482.47;5042604;28;20042;-67
2023/01/27 05:16:41;;;;;;;17.33;9.93;;;;;;;3.15;90.53;102477.22;5046528;28;20037;-68
2023/01/27 05:19:09;;;;;;;16.50;9.90;;;;;;;3.19;90.75;102476.47;5044604;28;20048;-70
2023/01/27 05:21:36;;;;;;;16.25;10.63;;;;;;;3.23;90.10;102473.97;5045685;28;20124;-68
2023/01/27 05:24:03;;;;;;;17.65;11.05;;;;;;;3.23;90.21;102473.09;5042189;28;20037;-68
2023/01/27 05:26:30;;;;;;;15.85;10.18;;;;;;;3.25;89.94;102471.41;5044383;28;20152;-68
2023/01/27 05:28:58;;;;;;;15.55;10.35;;;;;;;3.23;90.21;102470.47;5039719;28;20045;-68
2023/01/27 05:31:30;;;;;;;18.42;10.93;;;;;;;3.29;90.06;102469.75;5042767;28;20391;-69
2023/01/27 05:34:01;;;;;;;16.90;10.38;;;;;;;3.25;90.17;102464.50;5036113;28;20806;-68
2023/01/27 05:36:29;;;;;;;15.35;10.48;;;;;;;3.28;90.11;102468.00;5038251;28;20037;-69
2023/01/27 05:38:58;;;;;;;15.02;10.73;;;;;;;3.32;89.67;102468.09;5044027;28;20038;-70
2023/01/27 05:41:33;;;;;;;13.65;9.77;;;;;;;3.35;89.59;102475.16;5045576;28;20160;-69
2023/01/27 05:44:01;;;;;;;15.38;10.57;;;;;;;3.36;89.52;102475.19;5041385;28;20033;-69
2023/01/27 05:46:30;;;;;;;15.63;10.38;;;;;;;3.39;89.24;102471.75;5031006;28;20136;-69
2023/01/27 05:49:04;;;;;;;16.95;10.60;;;;;;;3.41;90.05;102481.38;5043749;28;20041;-70
2023/01/27 05:51:39;;;;;;;14.23;9.57;;;;;;;3.55;89.81;102481.75;5044952;28;20048;-70
2023/01/27 05:54:06;;;;;;;16.10;9.70;;;;;;;3.72;89.76;102478.66;5062252;28;20064;-67
2023/01/27 05:56:34;;;;;;;14.57;9.73;;;;;;;3.83;89.78;102476.31;5046268;28;20033;-67
2023/01/27 05:59:01;;;;;;;15.68;10.32;;;;;;;3.94;89.59;102480.06;5044213;28;20037;-68
2023/01/27 06:01:33;;;;;;;15.68;9.85;;;;;;;3.96;88.11;102488.81;5047585;28;20445;-66
2023/01/27 06:04:01;;;;;;;13.25;9.27;;;;;;;4.06;89.78;102483.81;5046549;28;20034;-67
2023/01/27 06:06:30;;;;;;;15.25;10.20;;;;;;;4.28;89.61;102491.28;5048497;28;20610;-68
2023/01/27 06:08:57;;;;;;;15.35;8.75;;;;;;;4.26;88.22;102487.75;5044173;28;20045;-67
2023/01/27 06:11:25;;;;;;;13.82;9.40;;;;;;;4.21;87.35;102489.38;5048200;28;20046;-66
2023/01/27 06:13:53;;;;;;;13.38;9.73;;;;;;;4.15;86.61;102490.13;5047774;28;20045;-67
2023/01/27 06:16:21;;;;;;;14.95;9.90;;;;;;;4.02;86.47;102502.00;5046959;28;20037;-67
2023/01/27 06:18:49;;;;;;;12.95;9.55;;;;;;;3.91;86.99;102497.38;5047936;28;20121;-67
2023/01/27 06:21:19;;;;;;;14.45;9.38;;;;;;;3.87;86.84;102501.63;5062654;28;20574;-67
2023/01/27 06:23:46;;;;;;;17.23;10.45;;;;;;;3.81;87.12;102507.59;5063334;28;20572;-67
2023/01/27 06:26:17;;;;;;;14.43;10.05;;;;;;;3.80;87.29;102511.03;5048941;28;20811;-67
2023/01/27 06:28:45;;;;;;;13.63;9.50;;;;;;;3.77;87.62;102516.16;5059023;28;20030;-67
2023/01/27 06:31:20;;;;;;;12.98;10.02;;;;;;;3.73;87.27;102514.34;5047552;28;20115;-67
2023/01/27 06:33:48;;;;;;;14.73;9.88;;;;;;;3.66;87.48;102515.91;5047383;28;20168;-67
2023/01/27 06:36:20;;;;;;;17.15;10.90;;;;;;;3.65;87.79;102518.50;5055579;28;20495;-67
2023/01/27 06:38:48;;;;;;;14.68;10.40;;;;;;;3.59;87.86;102516.63;5047337;28;20044;-67
2023/01/27 06:41:15;;;;;;;14.05;10.02;;;;;;;3.56;88.25;102520.00;5044943;28;20045;-67
2023/01/27 06:43:42;;;;;;;13.77;9.32;;;;;;;3.60;88.20;102520.09;5051932;28;20521;-67
2023/01/27 06:46:09;;;;;;;13.50;9.20;;;;;;;3.53;88.26;102509.50;5047528;28;20044;-67
2023/01/27 06:48:37;;;;;;;14.85;9.60;;;;;;;3.53;88.32;102513.84;5051935;28;20886;-66
2023/01/27 06:51:05;;;;;;;13.20;9.25;;;;;;;3.49;88.57;102506.78;5051698;28;20055;-67
2023/01/27 06:53:33;;;;;;;11.15;8.35;;;;;;;3.54;88.36;102516.50;5048180;28;20042;-67
2023/01/27 06:56:01;;;;;;;13.23;9.32;;;;;;;3.51;88.41;102519.03;5050387;28;20124;-67
2023/01/27 06:58:29;;;;;;;12.20;8.23;;;;;;;3.50;88.12;102519.00;5046197;28;20602;-67
2023/01/27 07:00:56;;;;;;;11.93;7.82;;;;;;;3.54;88.13;102523.44;5045758;28;20496;-66
2023/01/27 07:03:24;;;;;;;11.40;8.30;;;;;;;3.53;87.79;102534.69;5047483;28;20038;-67
2023/01/27 07:05:52;;;;;;;10.40;7.85;;;;;;;3.58;87.60;102531.38;5046496;28;20128;-67
2023/01/27 07:08:19;;;;;;;11.60;8.13;;;;;;;3.60;87.72;102531.44;5044846;28;20045;-67
2023/01/27 07:10:46;;;;;;;14.32;7.72;;;;;;;3.53;87.75;102530.38;5046002;28;20042;-67
2023/01/27 07:13:14;;;;;;;9.48;7.15;;;;;;;3.59;87.76;102537.47;5029251;28;20049;-67
2023/01/27 07:15:41;;;;;;;11.20;6.70;;;;;;;3.56;87.98;102532.19;5047495;28;20045;-65
2023/01/27 07:18:12;;;;;;;9.55;6.72;;;;;;;3.62;87.47;102531.44;5047612;28;20041;-67
2023/01/27 07:20:40;;;;;;;9.40;6.07;;;;;;;3.61;87.34;102535.81;5045439;28;20046;-67
2023/01/27 07:23:09;;;;;;;8.63;6.35;;;;;;;3.64;87.24;102540.22;5062100;28;20064;-68
2023/01/27 07:25:36;;;;;;;8.40;6.03;;;;;;;3.65;87.14;102544.59;5047052;28;20040;-67
2023/01/27 07:28:04;;;;;;;9.43;6.68;;;;;;;3.64;87.28;102546.28;5048038;28;20611;-67
2023/01/27 07:30:32;;;;;;;10.23;6.05;;;;;;;3.64;87.23;102548.03;5045907;28;20037;-67
2023/01/27 07:33:10;;;;;;;9.13;5.43;;;;;;;3.66;87.27;102548.97;5045045;28;20040;-68
2023/01/27 07:35:38;;;;;;;8.98;5.20;;;;;;;3.67;86.97;102550.69;5063066;28;20033;-67
2023/01/27 07:38:06;;;;;;;7.72;5.28;;;;;;;3.69;86.63;102551.63;5048296;28;20044;-67
2023/01/27 07:40:34;;;;;;;7.32;5.40;;;;;;;3.66;86.76;102565.47;5047198;28;20041;-67
2023/01/27 07:43:02;;;;;;;5.53;4.85;;;;;;;3.72;86.19;102556.94;5046237;28;20048;-67
2023/01/27 07:45:30;;;;;;;7.75;5.40;;;;;;;3.70;86.25;102569.94;5045769;28;20160;-68
2023/01/27 07:48:07;;;;;;;7.80;4.90;;;;;;;3.74;85.95;102570.91;5037210;28;20128;-66
2023/01/27 07:50:38;;;;;;;8.88;5.20;;;;;;;3.68;86.24;102576.84;5038506;28;20104;-67
2023/01/27 07:53:05;;;;;;;7.10;4.97;;;;;;;3.63;86.62;102564.53;5036327;28;20536;-67
2023/01/27 07:55:33;;;;;;;7.45;4.70;;;;;;;3.66;86.47;102573.31;5035680;28;20026;-67
2023/01/27 07:58:00;;;;;;;5.95;4.25;;;;;;;3.66;86.47;102570.69;5051191;28;20049;-66
2023/01/27 08:00:29;;;;;;;7.05;4.90;;;;;;;3.69;86.15;102586.44;5035412;28;20037;-67
2023/01/27 08:03:00;;;;;;;8.20;5.00;;;;;;;3.68;86.08;102584.66;5051232;28;20049;-67
2023/01/27 08:05:30;;;;;;;7.38;5.13;;;;;;;3.66;86.18;102585.47;5037508;28;20434;-67
2023/01/27 08:07:58;;;;;;;5.68;4.55;;;;;;;3.72;85.87;102588.25;5035828;28;20041;-67
2023/01/27 08:10:28;;;;;;;8.25;5.13;;;;;;;3.67;85.96;102584.59;5038622;28;20037;-67
2023/01/27 08:12:55;;;;;;;7.97;4.72;;;;;;;3.66;85.85;102588.97;5052858;28;20108;-67
2023/01/27 08:15:22;;;;;;;5.80;4.40;;;;;;;3.66;85.85;102583.75;5051965;28;20069;-67
2023/01/27 08:17:57;;;;;;;6.85;5.15;;;;;;;3.69;85.43;102588.16;5034340;28;20045;-66
2023/01/27 08:20:28;;;;;;;7.97;5.18;;;;;;;3.65;85.38;102591.53;5036378;28;20108;-68
2023/01/27 08:22:55;;;;;;;6.40;4.97;;;;;;;3.67;85.59;102584.59;5037523;28;20065;-67
2023/01/27 08:25:26;;;;;;;6.60;4.90;;;;;;;3.62;85.96;102581.00;5037809;28;20077;-67
2023/01/27 08:27:56;;;;;;;5.32;4.47;;;;;;;3.64;86.09;102582.81;5038884;28;20112;-66
2023/01/27 08:30:23;;;;;;;5.53;4.88;;;;;;;3.67;85.92;102582.00;5043053;28;20037;-66
2023/01/27 08:32:50;;;;;;;6.55;4.85;;;;;;;3.74;85.49;102586.56;5049638;28;20090;-66
2023/01/27 08:35:17;;;;;;;5.18;4.30;;;;;;;3.78;85.13;102582.28;5035605;28;20846;-66
2023/01/27 08:37:48;;;;;;;6.53;4.82;;;;;;;3.75;85.16;102593.53;5018261;28;20050;-66
2023/01/27 08:40:16;;;;;;;5.93;4.38;;;;;;;3.75;85.34;102590.03;5037248;28;20037;-65
2023/01/27 08:42:44;;;;;;;6.47;4.53;;;;;;;3.82;84.82;102595.47;5037278;28;20037;-65
2023/01/27 08:45:11;;;;;;;6.70;4.35;;;;;;;3.81;84.92;102593.69;5052213;28;20045;-65
2023/01/27 08:47:38;;;;;;;7.25;5.00;;;;;;;3.84;nan;102603.31;5034704;28;20478;-67
2023/01/27 08:50:07;;;;;;;5.50;4.10;;;;;;;3.87;84.65;102606.88;5035219;28;20045;-63
2023/01/27 08:52:41;;;;;;;6.53;4.18;;;;;;;3.90;84.45;102608.72;5041564;28;20065;-67
2023/01/27 08:55:08;;;;;;;4.50;4.05;;;;;;;3.89;84.31;102610.41;5052549;28;20615;-70
2023/01/27 08:57:36;;;;;;;5.53;3.80;;;;;;;3.95;84.07;102616.66;5057993;28;20041;-67
2023/01/27 09:00:05;;;;;;;5.32;4.55;;;;;;;3.88;84.67;102618.22;5046465;28;20085;-67
2023/01/27 09:02:33;;;;;;;6.20;4.50;;;;;;;3.92;84.03;102620.03;5047069;28;20131;-67
2023/01/27 09:05:00;;;;;;;6.20;4.10;;;;;;;3.91;84.09;102620.91;5048134;28;20041;-67
2023/01/27 09:07:27;;;;;;;4.75;4.10;;;;;;;3.91;84.27;102627.84;5047597;28;20029;-67
2023/01/27 09:09:54;;;;;;;8.15;5.05;;;;;;;3.94;83.58;102623.59;5044336;28;20045;-67
2023/01/27 09:12:40;;;;;;;6.25;4.70;;;;;;;3.93;84.02;102621.81;5055201;28;20528;-67
2023/01/27 09:15:08;;;;;;;8.65;4.60;;;;;;;3.99;83.63;102621.09;5057826;28;20591;-66
2023/01/27 09:17:36;;;;;;;6.53;4.30;;;;;;;4.03;83.29;102617.72;5052304;28;20040;-67
2023/01/27 09:20:04;;;;;;;5.05;4.03;;;;;;;4.04;83.46;102616.88;5054220;28;20041;-67
2023/01/27 09:22:31;;;;;;;5.07;4.13;;;;;;;4.08;83.19;102629.16;5053097;28;20788;-68
2023/01/27 09:24:58;;;;;;;5.07;4.28;;;;;;;4.09;83.01;102619.63;5046776;28;20096;-67
2023/01/27 09:27:25;;;;;;;6.38;4.07;;;;;;;4.13;82.89;102630.16;5043790;28;20047;-67
2023/01/27 09:30:08;;;;;;;5.68;4.50;;;;;;;4.18;82.94;102627.69;5048847;28;20038;-67
2023/01/27 09:32:35;;;;;;;5.68;4.57;;;;;;;4.28;82.44;102634.88;5052257;28;20482;-69
2023/01/27 09:35:02;;;;;;;6.20;4.10;;;;;;;4.45;81.73;102629.19;5056100;28;20049;-68
2023/01/27 09:37:32;;;;;;;5.45;4.13;;;;;;;4.49;81.85;102631.91;5049254;28;20037;-67
2023/01/27 09:40:11;;;;;;;6.55;4.35;;;;;;;4.52;81.78;102638.94;5062747;28;20040;-67
2023/01/27 09:43:04;;;;;;;4.65;3.90;;;;;;;4.58;81.22;102643.44;5051529;28;20045;-68
2023/01/27 09:45:45;;;;;;;5.18;4.18;;;;;;;4.64;80.83;102641.81;5048626;28;20627;-68
2023/01/27 09:48:50;;;;;;;6.18;4.15;;;;;;;4.65;80.87;102643.59;5062776;28;20995;-67
2023/01/27 09:51:51;;;;;;;5.65;3.70;;;;;;;4.71;80.78;102639.38;5048655;28;20107;-67
2023/01/27 09:55:05;;;;;;;5.28;4.78;;;;;;;4.72;80.35;102647.22;5060309;28;20600;-68
2023/01/27 09:58:00;;;;;;;5.20;4.22;;;;;;;4.76;80.16;102654.31;5024781;28;20999;-68
2023/01/27 10:00:47;;;;;;;4.78;4.28;;;;;;;4.71;80.45;102662.88;5043717;28;20058;-68
2023/01/27 10:04:05;;;;;;;4.63;4.13;;;;;;;4.65;80.51;102659.28;5044221;28;20041;-68
2023/01/27 10:06:48;;;;;;;5.03;4.10;;;;;;;4.63;79.96;102653.13;4994934;28;20060;-68
2023/01/27 10:09:46;;;;;;;4.60;3.97;;;;;;;4.61;80.46;102659.16;5042027;28;20033;-68
2023/01/27 10:12:44;;;;;;;4.25;3.70;;;;;;;4.62;79.91;102664.44;5044714;28;20466;-68
2023/01/27 10:15:42;;;;;;;5.72;3.85;;;;;;;4.55;80.45;102653.81;5055474;28;20510;-67
2023/01/27 10:18:21;;;;;;;7.28;5.05;;;;;;;4.57;80.51;102654.72;5045581;28;20116;-67
2023/01/27 10:21:06;;;;;;;6.13;4.68;;;;;;;4.60;80.73;102645.22;5061179;28;20046;-67
2023/01/27 10:23:51;;;;;;;5.38;4.30;;;;;;;4.64;80.60;102647.06;5060062;28;20736;-68
2023/01/27 10:26:30;;;;;;;5.03;4.53;;;;;;;4.68;80.38;102641.91;5045615;28;20131;-67
2023/01/27 10:29:17;;;;;;;6.50;4.45;;;;;;;4.83;79.46;102637.03;5045619;28;20056;-68
2023/01/27 10:31:56;;;;;;;5.75;4.10;;;;;;;4.85;79.14;102631.84;5044333;28;20033;-67
2023/01/27 10:35:02;;;;;;;6.55;4.40;;;;;;;4.87;79.16;102636.25;5049124;28;20092;-68
2023/01/27 10:37:43;;;;;;;;;;;;;;;4.87;79.56;102636.25;5046922;28;20069;-68
2023/01/27 10:40:46;;;;;;;7.03;5.18;;;;;;;4.93;79.81;102627.66;5048874;28;20071;-68
2023/01/27 10:43:22;;;;;;;5.97;5.03;;;;;;;5.05;79.39;102634.88;5044139;28;20038;-68
2023/01/27 10:46:11;;;;;;;5.80;4.80;;;;;;;5.13;79.02;102628.09;5044677;28;20202;-68
2023/01/27 10:49:03;;;;;;;6.50;4.75;;;;;;;5.16;78.93;102637.72;5044372;28;20476;-68
2023/01/27 10:51:49;;;;;;;6.38;4.30;;;;;;;5.28;78.00;102638.84;5056039;28;20135;-68
2023/01/27 10:54:45;;;;;;;5.20;4.32;;;;;;;5.27;77.95;102649.31;5052322;28;20048;-67
2023/01/27 10:57:32;;;;;;;6.50;4.70;;;;;;;5.28;78.07;102635.38;5064304;28;20044;-67
2023/01/27 11:00:20;;;;;;;5.22;4.03;;;;;;;5.32;77.83;102636.31;5047518;28;20908;-68
2023/01/27 11:03:34;;;;;;;7.15;4.63;;;;;;;5.32;77.66;102629.34;5039386;28;20139;-68
2023/01/27 11:06:11;;;;;;;5.50;4.63;;;;;;;5.32;77.47;102631.09;5046516;28;20033;-68
2023/01/27 11:08:44;;;;;;;4.97;4.47;;;;;;;5.33;77.62;102630.25;5041314;28;20044;-68
2023/01/27 11:14:21;;;;;;;5.82;4.88;;;;;;;5.29;77.41;102635.41;5028429;28;20034;-67
2023/01/27 11:16:55;;;;;;;5.15;4.47;;;;;;;5.30;77.44;102638.88;5042030;28;20049;-67
2023/01/27 11:19:48;;;;;;;10.55;4.95;;;;;;;5.23;77.75;102637.91;5062184;28;20048;-67
2023/01/27 11:22:33;;;;;;;7.00;5.05;;;;;;;5.29;77.33;102634.53;5046478;28;20072;-68
2023/01/27 11:25:22;;;;;;;4.93;4.20;;;;;;;5.22;77.66;102627.38;5048491;28;20089;-68
2023/01/27 11:28:16;;;;;;;6.88;4.78;;;;;;;5.20;77.19;102622.13;5046567;28;20049;-68
2023/01/27 11:31:38;;;;;;;5.57;4.97;;;;;;;5.16;77.24;102622.03;5046402;28;20056;-67
2023/01/27 11:34:16;;;;;;;7.53;4.38;;;;;;;5.10;77.78;102615.81;5044330;28;20042;-68
2023/01/27 11:36:45;;;;;;;6.28;5.03;;;;;;;5.04;78.33;102628.78;5048415;28;20030;-67
2023/01/27 11:39:14;;;;;;;6.25;4.80;;;;;;;5.08;78.42;102619.25;5064051;28;20099;-68
2023/01/27 11:41:57;;;;;;;5.63;4.40;;;;;;;5.07;78.64;102627.94;5028159;28;20514;-67
2023/01/27 11:44:31;;;;;;;5.05;4.25;;;;;;;5.13;77.98;102622.88;5028171;28;20045;-68
2023/01/27 11:47:00;;;;;;;5.85;4.72;;;;;;;5.12;77.65;102627.19;5047862;28;20041;-68
2023/01/27 11:49:36;;;;;;;5.15;4.40;;;;;;;5.11;77.75;102616.72;5044495;28;20042;-67
2023/01/27 11:52:17;;;;;;;5.35;4.22;;;;;;;5.10;78.26;102622.78;5062714;28;20049;-67
2023/01/27 11:54:56;;;;;;;5.22;4.38;;;;;;;5.11;78.32;102617.59;5061431;28;20075;-68
2023/01/27 11:57:26;;;;;;;6.30;4.80;;;;;;;5.10;78.65;102615.81;5030041;28;20052;-67
2023/01/27 12:00:03;;;;;;;6.35;4.50;;;;;;;5.18;78.59;102620.34;5062419;28;20577;-67
2023/01/27 12:03:02;;;;;;;5.00;4.50;;;;;;;5.25;77.91;102610.03;5047468;28;20108;-67
2023/01/27 12:05:34;;;;;;;7.20;4.65;;;;;;;5.26;77.93;102609.16;5044899;28;20124;-68
2023/01/27 12:08:04;;;;;;;5.25;4.10;;;;;;;5.34;77.15;102611.09;5062148;28;20541;-68
2023/01/27 12:10:40;;;;;;;5.93;4.85;;;;;;;5.30;77.39;102615.34;5046634;28;20038;-68
2023/01/27 12:13:23;;;;;;;5.43;4.60;;;;;;;5.27;77.09;102612.69;5047288;28;20041;-67
2023/01/27 12:15:57;;;;;;;6.13;4.47;;;;;;;5.18;77.14;102605.53;5062411;28;20045;-67
2023/01/27 12:18:25;;;;;;;6.32;4.97;;;;;;;5.15;77.77;102608.06;5029806;28;20527;-67
2023/01/27 12:21:00;;;;;;;6.05;4.63;;;;;;;5.15;77.74;102605.47;5046164;28;20120;-67
2023/01/27 12:23:32;;;;;;;;;;;;;;;5.16;77.54;102599.38;5046799;28;20053;-67
2023/01/27 12:26:05;;;;;;;5.18;3.80;;;;;;;5.18;77.29;102604.66;5046437;28;19925;-68
2023/01/27 12:28:34;;;;;;;5.68;4.88;;;;;;;5.08;77.58;102601.84;5047078;28;20052;-68
2023/01/27 12:31:09;;;;;;;6.82;4.95;;;;;;;5.01;77.92;102593.84;5047315;28;20532;-67